createdAt,value
2017-11-13T00:00:59.435Z,1005.99
2017-11-13T00:02:08.259Z,1005.91
2017-11-13T00:03:17.084Z,1005.93
2017-11-13T00:04:25.908Z,1005.9
2017-11-13T00:05:34.736Z,1005.97
2017-11-13T00:06:43.660Z,1005.95
2017-11-13T00:07:52.485Z,1005.97
2017-11-13T00:09:01.314Z,1006.01
2017-11-13T00:10:10.137Z,1006.01
2017-11-13T00:11:18.960Z,1006
2017-11-13T00:12:27.886Z,1006
2017-11-13T00:13:36.711Z,1006.03
2017-11-13T00:14:45.537Z,1006.03
2017-11-13T00:15:54.363Z,1006.06
2017-11-13T00:17:03.191Z,1006.07
2017-11-13T00:18:12.118Z,1006.1
2017-11-13T00:19:20.944Z,1006.07
2017-11-13T00:20:29.767Z,1006.15
2017-11-13T00:21:38.598Z,1006.15
2017-11-13T00:22:47.420Z,1006.11
2017-11-13T00:23:56.396Z,1006.16
2017-11-13T00:25:05.219Z,1006.17
2017-11-13T00:26:14.044Z,1006.19
2017-11-13T00:27:22.869Z,1006.22
2017-11-13T00:28:31.696Z,1006.21
2017-11-13T00:29:40.619Z,1006.23
2017-11-13T00:30:49.445Z,1006.28
2017-11-13T00:31:58.615Z,1006.25
2017-11-13T00:33:07.440Z,1006.32
2017-11-13T00:34:16.266Z,1006.28
2017-11-13T00:35:25.241Z,1006.27
2017-11-13T00:36:34.069Z,1006.27
2017-11-13T00:37:42.945Z,1006.23
2017-11-13T00:38:51.773Z,1006.33
2017-11-13T00:40:00.602Z,1006.31
2017-11-13T00:41:09.520Z,1006.33
2017-11-13T00:42:18.348Z,1006.34
2017-11-13T00:43:27.172Z,1006.38
2017-11-13T00:44:36.000Z,1006.38
2017-11-13T00:45:45.170Z,1006.4
2017-11-13T00:46:53.996Z,1006.43
2017-11-13T00:48:03.508Z,1006.44
2017-11-13T00:49:12.334Z,1006.47
2017-11-13T00:50:21.167Z,1006.49
2017-11-13T00:51:29.986Z,1006.51
2017-11-13T00:52:38.964Z,1006.48
2017-11-13T00:53:47.790Z,1006.52
2017-11-13T00:54:56.617Z,1006.51
2017-11-13T00:56:05.786Z,1006.53
2017-11-13T00:57:14.612Z,1006.52
2017-11-13T00:58:23.437Z,1006.56
2017-11-13T00:59:32.269Z,1006.62
2017-11-13T01:00:41.091Z,1006.69
2017-11-13T01:01:49.917Z,1006.68
2017-11-13T01:02:59.099Z,1006.69
2017-11-13T01:04:08.175Z,1006.72
2017-11-13T01:05:17.000Z,1006.71
2017-11-13T01:06:25.827Z,1006.73
2017-11-13T01:07:34.651Z,1006.72
2017-11-13T01:08:43.478Z,1006.78
2017-11-13T01:09:52.304Z,1006.76
2017-11-13T01:11:01.132Z,1006.79
2017-11-13T01:12:09.959Z,1006.79
2017-11-13T01:13:18.779Z,1006.79
2017-11-13T01:14:27.613Z,1006.8
2017-11-13T01:15:36.581Z,1006.76
2017-11-13T01:16:45.405Z,1006.82
2017-11-13T01:17:54.230Z,1006.88
2017-11-13T01:19:03.062Z,1006.89
2017-11-13T01:20:11.879Z,1006.93
2017-11-13T01:21:21.149Z,1006.99
2017-11-13T01:22:30.316Z,1007.01
2017-11-13T01:23:39.141Z,1007.02
2017-11-13T01:24:47.970Z,1007.02
2017-11-13T01:25:56.793Z,1007.01
2017-11-13T01:27:06.119Z,1007.05
2017-11-13T01:28:14.946Z,1007.03
2017-11-13T01:29:23.772Z,1007.11
2017-11-13T01:30:32.596Z,1007.11
2017-11-13T01:31:41.424Z,1007.08
2017-11-13T01:32:50.549Z,1007.07
2017-11-13T01:33:59.375Z,1007.05
2017-11-13T01:35:08.201Z,1007.04
2017-11-13T01:36:17.371Z,1007.09
2017-11-13T01:37:26.197Z,1007.08
2017-11-13T01:38:35.465Z,1007.07
2017-11-13T01:39:44.290Z,1007.17
2017-11-13T01:40:53.458Z,1007.17
2017-11-13T01:42:02.284Z,1007.21
2017-11-13T01:43:11.107Z,1007.18
2017-11-13T01:44:19.986Z,1007.17
2017-11-13T01:45:29.529Z,1007.22
2017-11-13T01:46:38.347Z,1007.17
2017-11-13T01:47:47.272Z,1007.25
2017-11-13T01:48:56.098Z,1007.27
2017-11-13T01:50:04.923Z,1007.25
2017-11-13T01:51:13.749Z,1007.22
2017-11-13T01:52:22.580Z,1007.25
2017-11-13T01:53:31.399Z,1007.3
2017-11-13T01:54:40.226Z,1007.31
2017-11-13T01:55:49.053Z,1007.39
2017-11-13T01:56:57.877Z,1007.41
2017-11-13T01:58:06.703Z,1007.38
2017-11-13T01:59:15.525Z,1007.42
2017-11-13T02:00:24.354Z,1007.44
2017-11-13T02:01:33.182Z,1007.4
2017-11-13T02:02:42.005Z,1007.41
2017-11-13T02:03:50.830Z,1007.4
2017-11-13T02:04:59.659Z,1007.39
2017-11-13T02:06:08.489Z,1007.41
2017-11-13T02:07:17.555Z,1007.36
2017-11-13T02:08:26.381Z,1007.45
2017-11-13T02:09:35.205Z,1007.44
2017-11-13T02:10:44.106Z,1007.54
2017-11-13T02:11:52.907Z,1007.51
2017-11-13T02:13:01.832Z,1007.56
2017-11-13T02:14:10.659Z,1007.55
2017-11-13T02:15:19.500Z,1007.58
2017-11-13T02:16:28.675Z,1007.57
2017-11-13T02:17:37.499Z,1007.59
2017-11-13T02:18:46.971Z,1007.68
2017-11-13T02:19:55.792Z,1007.61
2017-11-13T02:21:04.618Z,1007.64
2017-11-13T02:22:13.447Z,1007.65
2017-11-13T02:23:22.271Z,1007.64
2017-11-13T02:24:31.248Z,1007.65
2017-11-13T02:25:40.073Z,1007.7
2017-11-13T02:26:48.900Z,1007.71
2017-11-13T02:27:57.727Z,1007.7
2017-11-13T02:29:06.554Z,1007.77
2017-11-13T02:30:15.690Z,1007.77
2017-11-13T02:31:24.505Z,1007.79
2017-11-13T02:32:33.333Z,1007.77
2017-11-13T02:33:42.501Z,1007.79
2017-11-13T02:34:51.325Z,1007.77
2017-11-13T02:36:00.252Z,1007.8
2017-11-13T02:37:09.425Z,1007.81
2017-11-13T02:38:18.250Z,1007.85
2017-11-13T02:39:27.075Z,1007.84
2017-11-13T02:40:35.901Z,1007.88
2017-11-13T02:41:45.379Z,1007.85
2017-11-13T02:42:54.201Z,1007.87
2017-11-13T02:44:03.028Z,1007.93
2017-11-13T02:45:11.855Z,1007.94
2017-11-13T02:46:20.697Z,1007.94
2017-11-13T02:47:29.614Z,1007.94
2017-11-13T02:48:38.794Z,1007.93
2017-11-13T02:49:47.624Z,1007.95
2017-11-13T02:50:56.450Z,1007.99
2017-11-13T02:52:05.279Z,1008.05
2017-11-13T02:53:14.542Z,1008.05
2017-11-13T02:54:23.371Z,1008.04
2017-11-13T02:55:32.198Z,1008.05
2017-11-13T02:56:41.023Z,1008.07
2017-11-13T02:57:49.849Z,1008.13
2017-11-13T02:58:58.974Z,1008.14
2017-11-13T03:00:07.801Z,1008.12
2017-11-13T03:01:16.625Z,1008.21
2017-11-13T03:02:25.453Z,1008.19
2017-11-13T03:03:34.293Z,1008.23
2017-11-13T03:04:43.104Z,1008.27
2017-11-13T03:05:51.931Z,1008.26
2017-11-13T03:07:00.757Z,1008.31
2017-11-13T03:08:09.581Z,1008.29
2017-11-13T03:09:18.754Z,1008.33
2017-11-13T03:10:27.878Z,1008.32
2017-11-13T03:11:36.704Z,1008.33
2017-11-13T03:12:45.530Z,1008.37
2017-11-13T03:13:54.355Z,1008.4
2017-11-13T03:15:03.183Z,1008.4
2017-11-13T03:16:12.306Z,1008.51
2017-11-13T03:17:21.130Z,1008.52
2017-11-13T03:18:29.957Z,1008.55
2017-11-13T03:19:38.781Z,1008.6
2017-11-13T03:20:47.605Z,1008.62
2017-11-13T03:21:56.530Z,1008.61
2017-11-13T03:23:05.353Z,1008.63
2017-11-13T03:24:14.528Z,1008.67
2017-11-13T03:25:23.354Z,1008.68
2017-11-13T03:26:32.181Z,1008.67
2017-11-13T03:27:41.158Z,1008.71
2017-11-13T03:28:49.981Z,1008.74
2017-11-13T03:29:58.804Z,1008.74
2017-11-13T03:31:07.631Z,1008.77
2017-11-13T03:32:16.806Z,1008.82
2017-11-13T03:33:25.731Z,1008.83
2017-11-13T03:34:34.560Z,1008.89
2017-11-13T03:35:43.384Z,1008.92
2017-11-13T03:36:52.210Z,1008.93
2017-11-13T03:38:01.380Z,1008.92
2017-11-13T03:39:10.312Z,1008.89
2017-11-13T03:40:19.131Z,1008.93
2017-11-13T03:41:27.954Z,1008.94
2017-11-13T03:42:37.123Z,1008.91
2017-11-13T03:43:45.949Z,1008.92
2017-11-13T03:44:54.824Z,1009
2017-11-13T03:46:03.650Z,1009
2017-11-13T03:47:12.473Z,1009.04
2017-11-13T03:48:21.299Z,1009.08
2017-11-13T03:49:30.125Z,1009.06
2017-11-13T03:50:39.750Z,1009.07
2017-11-13T03:51:48.580Z,1009.11
2017-11-13T03:52:57.400Z,1009.17
2017-11-13T03:54:06.225Z,1009.14
2017-11-13T03:55:15.050Z,1009.16
2017-11-13T03:56:24.178Z,1009.21
2017-11-13T03:57:33.005Z,1009.24
2017-11-13T03:58:41.829Z,1009.24
2017-11-13T03:59:50.655Z,1009.26
2017-11-13T04:00:59.478Z,1009.31
2017-11-13T04:02:08.554Z,1009.38
2017-11-13T04:03:17.378Z,1009.42
2017-11-13T04:04:26.204Z,1009.43
2017-11-13T04:05:35.028Z,1009.51
2017-11-13T04:06:43.853Z,1009.54
2017-11-13T04:07:53.088Z,1009.52
2017-11-13T04:09:01.905Z,1009.55
2017-11-13T04:10:10.729Z,1009.57
2017-11-13T04:11:19.555Z,1009.59
2017-11-13T04:12:28.380Z,1009.63
2017-11-13T04:13:37.306Z,1009.69
2017-11-13T04:14:46.129Z,1009.77
2017-11-13T04:15:54.958Z,1009.78
2017-11-13T04:17:03.793Z,1009.83
2017-11-13T04:18:13.720Z,1009.88
2017-11-13T04:19:23.091Z,1009.91
2017-11-13T04:20:31.916Z,1009.9
2017-11-13T04:21:40.742Z,1009.97
2017-11-13T04:22:49.568Z,1009.99
2017-11-13T04:23:58.395Z,1009.93
2017-11-13T04:25:07.567Z,1010.01
2017-11-13T04:26:16.393Z,1010.03
2017-11-13T04:27:25.217Z,1010
2017-11-13T04:28:34.393Z,1010.03
2017-11-13T04:29:43.216Z,1010.05
2017-11-13T04:30:52.194Z,1010.01
2017-11-13T04:32:01.021Z,1010.03
2017-11-13T04:33:09.849Z,1010.05
2017-11-13T04:34:18.672Z,1010.02
2017-11-13T04:35:27.498Z,1010.05
2017-11-13T04:36:36.873Z,1010.05
2017-11-13T04:37:45.699Z,1010.05
2017-11-13T04:38:54.522Z,1010.02
2017-11-13T04:40:03.351Z,1010.06
2017-11-13T04:41:12.181Z,1010.07
2017-11-13T04:42:21.399Z,1010.18
2017-11-13T04:43:30.569Z,1010.22
2017-11-13T04:44:39.394Z,1010.21
2017-11-13T04:45:48.218Z,1010.2
2017-11-13T04:46:57.041Z,1010.18
2017-11-13T04:48:06.073Z,1010.26
2017-11-13T04:49:14.893Z,1010.26
2017-11-13T04:50:23.717Z,1010.28
2017-11-13T04:51:32.544Z,1010.26
2017-11-13T04:52:41.368Z,1010.3
2017-11-13T04:53:50.348Z,1010.31
2017-11-13T04:54:59.167Z,1010.28
2017-11-13T04:56:08.004Z,1010.3
2017-11-13T04:57:16.816Z,1010.34
2017-11-13T04:58:25.643Z,1010.35
2017-11-13T04:59:34.473Z,1010.35
2017-11-13T05:00:43.301Z,1010.36
2017-11-13T05:01:52.488Z,1010.38
2017-11-13T05:03:01.314Z,1010.36
2017-11-13T05:04:10.140Z,1010.36
2017-11-13T05:05:19.266Z,1010.39
2017-11-13T05:06:28.092Z,1010.42
2017-11-13T05:07:36.917Z,1010.43
2017-11-13T05:08:45.748Z,1010.43
2017-11-13T05:09:54.567Z,1010.48
2017-11-13T05:11:03.444Z,1010.51
2017-11-13T05:12:12.268Z,1010.49
2017-11-13T05:13:21.093Z,1010.54
2017-11-13T05:14:29.920Z,1010.6
2017-11-13T05:15:38.751Z,1010.6
2017-11-13T05:16:47.570Z,1010.68
2017-11-13T05:17:56.393Z,1010.71
2017-11-13T05:19:05.217Z,1010.75
2017-11-13T05:20:14.042Z,1010.77
2017-11-13T05:21:22.866Z,1010.75
2017-11-13T05:22:31.993Z,1010.76
2017-11-13T05:23:40.819Z,1010.85
2017-11-13T05:24:49.645Z,1010.82
2017-11-13T05:25:58.471Z,1010.85
2017-11-13T05:27:07.295Z,1010.86
2017-11-13T05:28:16.173Z,1010.86
2017-11-13T05:29:25.342Z,1010.88
2017-11-13T05:30:34.165Z,1010.9
2017-11-13T05:31:42.991Z,1010.9
2017-11-13T05:32:51.818Z,1010.95
2017-11-13T05:34:00.695Z,1010.95
2017-11-13T05:35:09.870Z,1010.93
2017-11-13T05:36:19.048Z,1010.97
2017-11-13T05:37:27.873Z,1010.99
2017-11-13T05:38:36.697Z,1011.03
2017-11-13T05:39:45.572Z,1011.02
2017-11-13T05:40:54.403Z,1011.03
2017-11-13T05:42:03.224Z,1011.03
2017-11-13T05:43:12.049Z,1011.05
2017-11-13T05:44:20.873Z,1011.06
2017-11-13T05:45:29.697Z,1011.07
2017-11-13T05:46:38.525Z,1011.11
2017-11-13T05:47:47.348Z,1011.18
2017-11-13T05:48:56.174Z,1011.17
2017-11-13T05:50:05.009Z,1011.26
2017-11-13T05:51:14.177Z,1011.29
2017-11-13T05:52:23.345Z,1011.22
2017-11-13T05:53:32.170Z,1011.23
2017-11-13T05:54:40.997Z,1011.27
2017-11-13T05:55:49.822Z,1011.25
2017-11-13T05:56:58.697Z,1011.25
2017-11-13T05:58:07.523Z,1011.29
2017-11-13T05:59:16.366Z,1011.35
2017-11-13T06:00:25.174Z,1011.42
2017-11-13T06:01:34.005Z,1011.5
2017-11-13T06:02:43.138Z,1011.47
2017-11-13T06:03:51.956Z,1011.54
2017-11-13T06:05:01.477Z,1011.59
2017-11-13T06:06:10.306Z,1011.69
2017-11-13T06:07:19.128Z,1011.67
2017-11-13T06:08:28.058Z,1011.7
2017-11-13T06:09:36.885Z,1011.72
2017-11-13T06:10:45.709Z,1011.73
2017-11-13T06:11:54.532Z,1011.71
2017-11-13T06:13:03.705Z,1011.7
2017-11-13T06:14:12.681Z,1011.72
2017-11-13T06:15:21.506Z,1011.75
2017-11-13T06:16:30.331Z,1011.79
2017-11-13T06:17:39.156Z,1011.82
2017-11-13T06:18:47.985Z,1011.87
2017-11-13T06:19:56.807Z,1011.9
2017-11-13T06:21:06.386Z,1011.93
2017-11-13T06:22:15.466Z,1011.97
2017-11-13T06:23:24.573Z,1012.02
2017-11-13T06:24:33.960Z,1012.02
2017-11-13T06:25:43.021Z,1012.07
2017-11-13T06:26:52.134Z,1012.05
2017-11-13T06:28:01.315Z,1012.08
2017-11-13T06:29:10.143Z,1012.09
2017-11-13T06:30:18.970Z,1012.16
2017-11-13T06:31:27.798Z,1012.16
2017-11-13T06:32:36.623Z,1012.15
2017-11-13T06:33:45.450Z,1012.16
2017-11-13T06:34:54.273Z,1012.2
2017-11-13T06:36:03.102Z,1012.21
2017-11-13T06:37:11.925Z,1012.23
2017-11-13T06:38:20.750Z,1012.23
2017-11-13T06:39:29.575Z,1012.27
2017-11-13T06:40:38.409Z,1012.28
2017-11-13T06:41:47.233Z,1012.33
2017-11-13T06:42:56.404Z,1012.34
2017-11-13T06:44:05.230Z,1012.39
2017-11-13T06:45:14.056Z,1012.44
2017-11-13T06:46:22.882Z,1012.45
2017-11-13T06:47:31.711Z,1012.49
2017-11-13T06:48:40.538Z,1012.51
2017-11-13T06:49:49.366Z,1012.55
2017-11-13T06:50:58.242Z,1012.53
2017-11-13T06:52:07.067Z,1012.57
2017-11-13T06:53:15.890Z,1012.59
2017-11-13T06:54:24.716Z,1012.6
2017-11-13T06:55:33.886Z,1012.61
2017-11-13T06:56:42.811Z,1012.66
2017-11-13T06:57:51.637Z,1012.66
2017-11-13T06:59:00.461Z,1012.65
2017-11-13T07:00:09.288Z,1012.7
2017-11-13T07:01:18.465Z,1012.67
2017-11-13T07:02:27.441Z,1012.67
2017-11-13T07:03:36.266Z,1012.7
2017-11-13T07:04:45.094Z,1012.68
2017-11-13T07:05:53.921Z,1012.71
2017-11-13T07:07:02.746Z,1012.72
2017-11-13T07:08:11.620Z,1012.77
2017-11-13T07:09:20.447Z,1012.77
2017-11-13T07:10:29.275Z,1012.78
2017-11-13T07:11:38.101Z,1012.76
2017-11-13T07:12:46.927Z,1012.8
2017-11-13T07:13:55.854Z,1012.84
2017-11-13T07:15:04.682Z,1012.84
2017-11-13T07:16:13.508Z,1012.89
2017-11-13T07:17:22.686Z,1012.89
2017-11-13T07:18:31.514Z,1012.95
2017-11-13T07:19:40.683Z,1012.95
2017-11-13T07:20:49.509Z,1012.97
2017-11-13T07:21:58.335Z,1012.96
2017-11-13T07:23:07.162Z,1013.01
2017-11-13T07:24:15.986Z,1013.03
2017-11-13T07:25:24.911Z,1013.04
2017-11-13T07:26:33.737Z,1013.04
2017-11-13T07:27:42.565Z,1013.02
2017-11-13T07:28:51.390Z,1013.06
2017-11-13T07:30:00.214Z,1013.08
2017-11-13T07:31:09.141Z,1013.01
2017-11-13T07:32:17.968Z,1013.13
2017-11-13T07:33:26.810Z,1013.12
2017-11-13T07:34:35.619Z,1013.16
2017-11-13T07:35:44.443Z,1013.17
2017-11-13T07:36:53.418Z,1013.14
2017-11-13T07:38:02.245Z,1013.17
2017-11-13T07:39:11.112Z,1013.23
2017-11-13T07:40:19.940Z,1013.23
2017-11-13T07:41:28.769Z,1013.23
2017-11-13T07:42:37.601Z,1013.28
2017-11-13T07:43:46.424Z,1013.33
2017-11-13T07:44:55.601Z,1013.28
2017-11-13T07:46:04.431Z,1013.34
2017-11-13T07:47:13.262Z,1013.38
2017-11-13T07:48:22.142Z,1013.4
2017-11-13T07:49:31.028Z,1013.44
2017-11-13T07:50:39.858Z,1013.48
2017-11-13T07:51:48.690Z,1013.47
2017-11-13T07:52:57.525Z,1013.5
2017-11-13T07:54:06.960Z,1013.53
2017-11-13T07:55:15.808Z,1013.56
2017-11-13T07:56:24.652Z,1013.54
2017-11-13T07:57:33.493Z,1013.53
2017-11-13T07:58:42.688Z,1013.59
2017-11-13T07:59:51.566Z,1013.57
2017-11-13T08:01:00.801Z,1013.62
2017-11-13T08:02:09.771Z,1013.58
2017-11-13T08:03:18.739Z,1013.54
2017-11-13T08:04:27.920Z,1013.62
2017-11-13T08:05:36.850Z,1013.63
2017-11-13T08:06:45.680Z,1013.68
2017-11-13T08:07:54.510Z,1013.68
2017-11-13T08:09:03.347Z,1013.71
2017-11-13T08:10:12.224Z,1013.67
2017-11-13T08:11:21.197Z,1013.69
2017-11-13T08:12:30.046Z,1013.71
2017-11-13T08:13:38.905Z,1013.76
2017-11-13T08:14:48.144Z,1013.78
2017-11-13T08:15:56.982Z,1013.78
2017-11-13T08:17:06.044Z,1013.77
2017-11-13T08:18:15.340Z,1013.79
2017-11-13T08:19:24.531Z,1013.83
2017-11-13T08:20:33.366Z,1013.85
2017-11-13T08:21:42.195Z,1013.84
2017-11-13T08:22:51.314Z,1013.87
2017-11-13T08:24:00.309Z,1013.9
2017-11-13T08:25:09.391Z,1013.93
2017-11-13T08:26:18.429Z,1014
2017-11-13T08:27:27.327Z,1013.98
2017-11-13T08:28:36.420Z,1014
2017-11-13T08:29:45.252Z,1014.07
2017-11-13T08:30:54.133Z,1014.05
2017-11-13T08:32:03.292Z,1014.11
2017-11-13T08:33:12.226Z,1014.07
2017-11-13T08:34:21.563Z,1014.08
2017-11-13T08:35:30.601Z,1014.09
2017-11-13T08:36:39.631Z,1014.08
2017-11-13T08:37:48.584Z,1014.07
2017-11-13T08:38:57.689Z,1014.12
2017-11-13T08:40:06.632Z,1014.12
2017-11-13T08:41:15.499Z,1014.09
2017-11-13T08:42:24.810Z,1014.14
2017-11-13T08:43:33.658Z,1014.13
2017-11-13T08:44:42.515Z,1014.21
2017-11-13T08:45:51.576Z,1014.27
2017-11-13T08:47:01.065Z,1014.27
2017-11-13T08:48:10.561Z,1014.3
2017-11-13T08:49:20.929Z,1014.34
2017-11-13T08:50:30.113Z,1014.41
2017-11-13T08:51:39.232Z,1014.37
2017-11-13T08:52:48.427Z,1014.45
2017-11-13T08:53:57.483Z,1014.45
2017-11-13T08:55:06.550Z,1014.5
2017-11-13T08:56:15.465Z,1014.47
2017-11-13T08:57:24.731Z,1014.51
2017-11-13T08:58:33.721Z,1014.51
2017-11-13T08:59:42.962Z,1014.47
2017-11-13T09:00:51.980Z,1014.5
2017-11-13T09:02:01.445Z,1014.49
2017-11-13T09:03:10.844Z,1014.53
2017-11-13T09:04:20.577Z,1014.54
2017-11-13T09:05:29.808Z,1014.57
2017-11-13T09:06:38.679Z,1014.58
2017-11-13T09:07:47.662Z,1014.62
2017-11-13T09:08:57.096Z,1014.67
2017-11-13T09:10:06.612Z,1014.69
2017-11-13T09:11:15.994Z,1014.7
2017-11-13T09:12:24.934Z,1014.73
2017-11-13T09:13:34.129Z,1014.65
2017-11-13T09:14:43.363Z,1014.68
2017-11-13T09:15:52.198Z,1014.71
2017-11-13T09:17:01.029Z,1014.72
2017-11-13T09:18:09.929Z,1014.76
2017-11-13T09:19:18.930Z,1014.74
2017-11-13T09:20:28.796Z,1014.78
2017-11-13T09:21:37.660Z,1014.76
2017-11-13T09:22:46.594Z,1014.83
2017-11-13T09:23:55.430Z,1014.82
2017-11-13T09:25:04.260Z,1014.8
2017-11-13T09:26:13.679Z,1014.82
2017-11-13T09:27:22.581Z,1014.83
2017-11-13T09:28:31.417Z,1014.9
2017-11-13T09:29:40.262Z,1014.86
2017-11-13T09:30:49.155Z,1014.86
2017-11-13T09:31:58.401Z,1014.94
2017-11-13T09:33:07.593Z,1014.9
2017-11-13T09:34:17.080Z,1014.95
2017-11-13T09:35:25.965Z,1014.95
2017-11-13T09:36:34.803Z,1014.94
2017-11-13T09:37:43.636Z,1014.99
2017-11-13T09:38:52.492Z,1015
2017-11-13T09:40:01.673Z,1015.02
2017-11-13T09:41:10.893Z,1015
2017-11-13T09:42:19.923Z,1014.97
2017-11-13T09:43:28.907Z,1014.95
2017-11-13T09:44:37.755Z,1015.01
2017-11-13T09:45:46.589Z,1015.04
2017-11-13T09:46:55.448Z,1015.05
2017-11-13T09:48:04.358Z,1015.04
2017-11-13T09:49:14.259Z,1015.05
2017-11-13T09:50:23.854Z,1015.07
2017-11-13T09:51:32.692Z,1015.03
2017-11-13T09:52:41.585Z,1015.06
2017-11-13T09:53:50.421Z,1015.09
2017-11-13T09:54:59.527Z,1015.11
2017-11-13T09:56:08.520Z,1015.08
2017-11-13T09:57:17.674Z,1015.11
2017-11-13T09:58:27.143Z,1015.16
2017-11-13T09:59:35.985Z,1015.12
2017-11-13T10:00:45.007Z,1015.18
2017-11-13T10:01:53.865Z,1015.14
2017-11-13T10:03:03.220Z,1015.18
2017-11-13T10:04:12.325Z,1015.25
2017-11-13T10:05:21.214Z,1015.33
2017-11-13T10:06:30.296Z,1015.32
2017-11-13T10:07:39.250Z,1015.32
2017-11-13T10:08:48.256Z,1015.27
2017-11-13T10:09:57.745Z,1015.29
2017-11-13T10:11:06.592Z,1015.26
2017-11-13T10:12:15.546Z,1015.25
2017-11-13T10:13:24.741Z,1015.32
2017-11-13T10:14:33.574Z,1015.29
2017-11-13T10:15:42.555Z,1015.29
2017-11-13T10:16:51.738Z,1015.29
2017-11-13T10:18:00.624Z,1015.33
2017-11-13T10:19:09.700Z,1015.35
2017-11-13T10:20:19.121Z,1015.36
2017-11-13T10:21:28.108Z,1015.44
2017-11-13T10:22:37.364Z,1015.41
2017-11-13T10:23:46.413Z,1015.42
2017-11-13T10:24:55.629Z,1015.42
2017-11-13T10:26:05.161Z,1015.42
2017-11-13T10:27:14.431Z,1015.45
2017-11-13T10:28:23.401Z,1015.44
2017-11-13T10:29:32.773Z,1015.41
2017-11-13T10:30:41.640Z,1015.44
2017-11-13T10:31:50.504Z,1015.43
2017-11-13T10:32:59.457Z,1015.44
2017-11-13T10:34:08.313Z,1015.49
2017-11-13T10:35:17.591Z,1015.46
2017-11-13T10:36:27.112Z,1015.45
2017-11-13T10:37:36.201Z,1015.47
2017-11-13T10:38:45.273Z,1015.49
2017-11-13T10:39:55.379Z,1015.52
2017-11-13T10:41:04.831Z,1015.48
2017-11-13T10:42:14.087Z,1015.55
2017-11-13T10:43:23.054Z,1015.48
2017-11-13T10:44:32.163Z,1015.52
2017-11-13T10:45:41.069Z,1015.51
2017-11-13T10:46:50.437Z,1015.55
2017-11-13T10:47:59.272Z,1015.52
2017-11-13T10:49:08.162Z,1015.54
2017-11-13T10:50:17.069Z,1015.52
2017-11-13T10:51:26.454Z,1015.59
2017-11-13T10:52:35.523Z,1015.62
2017-11-13T10:53:44.406Z,1015.63
2017-11-13T10:54:53.239Z,1015.66
2017-11-13T10:56:02.079Z,1015.69
2017-11-13T10:57:11.008Z,1015.67
2017-11-13T10:58:21.727Z,1015.62
2017-11-13T10:59:30.623Z,1015.62
2017-11-13T11:00:39.808Z,1015.64
2017-11-13T11:01:48.757Z,1015.66
2017-11-13T11:02:57.615Z,1015.67
2017-11-13T11:04:06.600Z,1015.72
2017-11-13T11:05:15.592Z,1015.69
2017-11-13T11:06:24.523Z,1015.69
2017-11-13T11:07:33.385Z,1015.65
2017-11-13T11:08:42.216Z,1015.68
2017-11-13T11:09:51.352Z,1015.66
2017-11-13T11:11:00.188Z,1015.67
2017-11-13T11:12:09.020Z,1015.62
2017-11-13T11:13:17.870Z,1015.64
2017-11-13T11:14:26.705Z,1015.61
2017-11-13T11:15:35.807Z,1015.68
2017-11-13T11:16:44.639Z,1015.66
2017-11-13T11:17:53.475Z,1015.64
2017-11-13T11:19:02.717Z,1015.66
2017-11-13T11:20:11.689Z,1015.66
2017-11-13T11:21:20.830Z,1015.74
2017-11-13T11:22:29.678Z,1015.71
2017-11-13T11:23:38.505Z,1015.72
2017-11-13T11:24:47.338Z,1015.7
2017-11-13T11:25:56.170Z,1015.65
2017-11-13T11:27:05.467Z,1015.69
2017-11-13T11:28:14.713Z,1015.69
2017-11-13T11:29:23.551Z,1015.69
2017-11-13T11:30:32.390Z,1015.68
2017-11-13T11:31:41.269Z,1015.63
2017-11-13T11:32:50.459Z,1015.63
2017-11-13T11:33:59.409Z,1015.63
2017-11-13T11:35:08.248Z,1015.59
2017-11-13T11:36:17.432Z,1015.63
2017-11-13T11:37:26.262Z,1015.65
2017-11-13T11:38:35.198Z,1015.67
2017-11-13T11:39:44.233Z,1015.71
2017-11-13T11:40:53.132Z,1015.77
2017-11-13T11:42:01.964Z,1015.77
2017-11-13T11:43:11.248Z,1015.73
2017-11-13T11:44:20.530Z,1015.73
2017-11-13T11:45:29.705Z,1015.78
2017-11-13T11:46:38.947Z,1015.81
2017-11-13T11:47:47.953Z,1015.78
2017-11-13T11:48:56.850Z,1015.84
2017-11-13T11:50:05.989Z,1015.86
2017-11-13T11:51:15.053Z,1015.85
2017-11-13T11:52:23.952Z,1015.91
2017-11-13T11:53:32.789Z,1015.9
2017-11-13T11:54:41.631Z,1015.92
2017-11-13T11:55:50.662Z,1015.88
2017-11-13T11:56:59.859Z,1015.86
2017-11-13T11:58:08.710Z,1015.87
2017-11-13T11:59:17.549Z,1015.8
2017-11-13T12:00:26.395Z,1015.88
2017-11-13T12:01:35.452Z,1015.9
2017-11-13T12:02:45.390Z,1015.88
2017-11-13T12:03:54.620Z,1015.98
2017-11-13T12:05:03.502Z,1016.01
2017-11-13T12:06:12.658Z,1016.04
2017-11-13T12:07:22.098Z,1016.02
2017-11-13T12:08:30.945Z,1016.03
2017-11-13T12:09:40.140Z,1016
2017-11-13T12:10:48.978Z,1016.01
2017-11-13T12:11:57.812Z,1016.01
2017-11-13T12:13:06.711Z,1016.05
2017-11-13T12:14:15.541Z,1016.06
2017-11-13T12:15:24.384Z,1016.05
2017-11-13T12:16:33.234Z,1016.11
2017-11-13T12:17:42.272Z,1016.13
2017-11-13T12:18:51.518Z,1016.13
2017-11-13T12:20:00.409Z,1016.15
2017-11-13T12:21:09.267Z,1016.16
2017-11-13T12:22:18.110Z,1016.2
2017-11-13T12:23:26.944Z,1016.21
2017-11-13T12:24:35.925Z,1016.22
2017-11-13T12:25:44.806Z,1016.21
2017-11-13T12:26:53.655Z,1016.21
2017-11-13T12:28:02.502Z,1016.23
2017-11-13T12:29:11.379Z,1016.23
2017-11-13T12:30:20.356Z,1016.23
2017-11-13T12:31:29.534Z,1016.32
2017-11-13T12:32:38.371Z,1016.34
2017-11-13T12:33:47.239Z,1016.27
2017-11-13T12:34:56.407Z,1016.25
2017-11-13T12:36:05.854Z,1016.23
2017-11-13T12:37:15.059Z,1016.25
2017-11-13T12:38:23.891Z,1016.24
2017-11-13T12:39:32.732Z,1016.21
2017-11-13T12:40:41.566Z,1016.2
2017-11-13T12:41:50.497Z,1016.22
2017-11-13T12:42:59.676Z,1016.22
2017-11-13T12:44:08.516Z,1016.29
2017-11-13T12:45:17.358Z,1016.25
2017-11-13T12:46:26.190Z,1016.25
2017-11-13T12:47:35.448Z,1016.29
2017-11-13T12:48:44.316Z,1016.3
2017-11-13T12:49:53.148Z,1016.22
2017-11-13T12:51:01.982Z,1016.16
2017-11-13T12:52:10.886Z,1016.2
2017-11-13T12:53:19.862Z,1016.22
2017-11-13T12:54:28.721Z,1016.26
2017-11-13T12:55:37.551Z,1016.24
2017-11-13T12:56:46.384Z,1016.26
2017-11-13T12:57:55.223Z,1016.3
2017-11-13T12:59:04.068Z,1016.22
2017-11-13T13:00:13.602Z,1016.2
2017-11-13T13:01:22.791Z,1016.2
2017-11-13T13:02:31.625Z,1016.23
2017-11-13T13:03:40.459Z,1016.26
2017-11-13T13:04:49.348Z,1016.23
2017-11-13T13:05:58.178Z,1016.25
2017-11-13T13:07:07.369Z,1016.25
2017-11-13T13:08:16.203Z,1016.19
2017-11-13T13:09:25.052Z,1016.23
2017-11-13T13:10:33.945Z,1016.23
2017-11-13T13:11:42.779Z,1016.18
2017-11-13T13:12:51.627Z,1016.22
2017-11-13T13:14:00.474Z,1016.25
2017-11-13T13:15:09.311Z,1016.27
2017-11-13T13:16:18.352Z,1016.29
2017-11-13T13:17:27.188Z,1016.32
2017-11-13T13:18:36.022Z,1016.34
2017-11-13T13:19:44.866Z,1016.41
2017-11-13T13:20:53.730Z,1016.33
2017-11-13T13:22:03.061Z,1016.38
2017-11-13T13:23:12.262Z,1016.32
2017-11-13T13:24:21.142Z,1016.29
2017-11-13T13:25:29.981Z,1016.34
2017-11-13T13:26:38.826Z,1016.36
2017-11-13T13:27:47.713Z,1016.3
2017-11-13T13:28:56.555Z,1016.35
2017-11-13T13:30:05.408Z,1016.36
2017-11-13T13:31:14.368Z,1016.35
2017-11-13T13:32:23.650Z,1016.4
2017-11-13T13:33:32.560Z,1016.45
2017-11-13T13:34:41.409Z,1016.45
2017-11-13T13:35:50.258Z,1016.41
2017-11-13T13:36:59.096Z,1016.44
2017-11-13T13:38:08.004Z,1016.42
2017-11-13T13:39:16.960Z,1016.41
2017-11-13T13:40:26.162Z,1016.36
2017-11-13T13:41:35.357Z,1016.35
2017-11-13T13:42:44.357Z,1016.42
2017-11-13T13:43:53.208Z,1016.42
2017-11-13T13:45:02.096Z,1016.45
2017-11-13T13:46:10.992Z,1016.45
2017-11-13T13:47:20.015Z,1016.5
2017-11-13T13:48:28.954Z,1016.44
2017-11-13T13:49:37.844Z,1016.46
2017-11-13T13:50:46.859Z,1016.45
2017-11-13T13:51:55.742Z,1016.47
2017-11-13T13:53:04.585Z,1016.47
2017-11-13T13:54:13.645Z,1016.41
2017-11-13T13:55:22.687Z,1016.4
2017-11-13T13:56:31.676Z,1016.46
2017-11-13T13:57:40.534Z,1016.43